Sign in

Goboko App

Advertising

Info

Aviation weather - KDAB

METAR KDAB 280753Z 22004KT 10SM CLR 18/17 A2997 RMK AO2 SLP149 T01830172

TAF KDAB 280520Z 2806/2906 24003KT P6SM SKC FM281300 27007KT P6SM SKC FM281900 10009KT P6SM SKC FM290000 16005KT P6SM SKC

Aviation weather from ADDS. Re-check weather before flight.

-